Time;durP1;ratioP1;P1;durP2;ratioP2;P2;SDS_P1;SDS_P2;PMS_P1;PMS_P2;Temp;Humidity;BMP_temperature;BMP_pressure;BME280_temperature;BME280_humidity;BME280_pressure;Samples;Min_cycle;Max_cycle;Signal;HPM_P1;HPM_P2
2022/08/05 00:02:28;;;;;;;13.43;4.80;;;20.70;99.90;;;;;;5039364;28;20480;-61
2022/08/05 00:04:55;;;;;;;6.07;4.90;;;20.60;99.90;;;;;;5041410;28;20535;-61
2022/08/05 00:07:22;;;;;;;8.47;5.27;;;20.60;99.90;;;;;;5035601;28;20484;-61
2022/08/05 00:09:49;;;;;;;11.03;5.60;;;20.50;99.90;;;;;;5032987;28;20451;-61
2022/08/05 00:12:16;;;;;;;13.13;6.40;;;20.40;99.90;;;;;;5032955;28;20491;-62
2022/08/05 00:14:44;;;;;;;6.87;5.37;;;20.30;99.90;;;;;;5033114;28;20564;-62
2022/08/05 00:17:11;;;;;;;11.17;6.80;;;20.20;99.90;;;;;;5032988;28;20552;-61
2022/08/05 00:19:40;;;;;;;12.23;6.33;;;20.20;99.90;;;;;;5032971;28;20580;-62
2022/08/05 00:22:07;;;;;;;9.43;7.70;;;20.10;99.90;;;;;;5032943;28;20480;-61
2022/08/05 00:24:34;;;;;;;15.27;7.30;;;20.10;99.90;;;;;;5033044;28;20527;-61
2022/08/05 00:27:02;;;;;;;10.47;7.60;;;20.00;99.90;;;;;;5037446;28;20485;-61
2022/08/05 00:29:29;;;;;;;14.10;7.57;;;20.00;99.90;;;;;;5038800;28;20509;-61
2022/08/05 00:31:56;;;;;;;13.20;8.50;;;20.00;99.90;;;;;;5038974;28;20491;-61
2022/08/05 00:34:24;;;;;;;16.03;8.50;;;20.00;99.90;;;;;;5037773;28;20870;-61
2022/08/05 00:36:52;;;;;;;17.60;9.40;;;19.90;99.90;;;;;;5037855;28;20528;-61
2022/08/05 00:39:19;;;;;;;17.50;9.97;;;19.90;99.90;;;;;;5037579;28;20603;-61
2022/08/05 00:41:48;;;;;;;13.87;9.47;;;19.80;99.90;;;;;;5037434;28;20523;-60
2022/08/05 00:44:15;;;;;;;14.07;10.23;;;19.80;99.90;;;;;;5037097;28;20453;-60
2022/08/05 00:46:42;;;;;;;15.73;9.60;;;19.70;99.90;;;;;;5036555;28;20441;-60
2022/08/05 00:49:10;;;;;;;20.77;11.40;;;19.70;99.90;;;;;;5036353;28;20557;-62
2022/08/05 00:51:37;;;;;;;16.20;10.17;;;19.70;99.90;;;;;;5036339;28;20543;-61
2022/08/05 00:54:06;;;;;;;16.30;10.67;;;19.70;99.90;;;;;;5036557;28;20506;-62
2022/08/05 00:56:33;;;;;;;17.50;11.90;;;19.60;99.90;;;;;;5036584;28;20532;-62
2022/08/05 00:59:00;;;;;;;17.80;11.10;;;19.60;99.90;;;;;;5036528;28;20556;-62
2022/08/05 01:01:27;;;;;;;22.17;12.33;;;19.60;99.90;;;;;;5036091;28;20945;-62
2022/08/05 01:03:55;;;;;;;18.73;12.07;;;19.50;99.90;;;;;;5036118;28;20983;-61
2022/08/05 01:06:22;;;;;;;20.90;10.87;;;19.50;99.90;;;;;;5036195;28;20449;-61
2022/08/05 01:08:49;;;;;;;22.47;12.90;;;19.40;99.90;;;;;;5036295;28;20555;-61
2022/08/05 01:11:22;;;;;;;13.93;10.70;;;19.40;99.90;;;;;;5036401;28;20536;-61
2022/08/05 01:14:00;;;;;;;25.60;12.87;;;19.40;99.90;;;;;;5036760;28;20429;-61
2022/08/05 01:16:33;;;;;;;19.30;11.83;;;19.40;99.90;;;;;;5036508;28;20496;-61
2022/08/05 01:19:12;;;;;;;17.03;12.13;;;19.40;99.90;;;;;;5036402;28;20501;-61
2022/08/05 01:22:14;;;;;;;14.37;10.77;;;19.40;99.90;;;;;;5036511;28;20433;-61
2022/08/05 01:25:09;;;;;;;17.57;11.97;;;19.30;99.90;;;;;;5017752;28;20476;-61
2022/08/05 01:27:54;;;;;;;20.37;11.43;;;19.30;99.90;;;;;;5036620;28;20667;-62
2022/08/05 01:30:22;;;;;;;20.50;11.30;;;19.30;99.90;;;;;;5036006;28;20472;-61
2022/08/05 01:32:52;;;;;;;20.30;9.90;;;19.20;99.90;;;;;;5036170;28;20539;-61
2022/08/05 01:35:25;;;;;;;15.20;10.40;;;19.10;99.90;;;;;;5036405;28;20591;-61
2022/08/05 01:37:55;;;;;;;17.63;11.43;;;19.10;99.90;;;;;;5035211;28;20560;-62
2022/08/05 01:40:27;;;;;;;15.70;11.20;;;19.10;99.90;;;;;;5035888;28;20524;-61
2022/08/05 01:42:59;;;;;;;18.23;11.23;;;19.10;99.90;;;;;;5035510;28;20429;-61
2022/08/05 01:45:27;;;;;;;14.87;10.90;;;19.00;99.90;;;;;;5035441;28;20508;-61
2022/08/05 01:47:57;;;;;;;14.60;9.60;;;19.10;99.90;;;;;;5035319;28;20469;-61
2022/08/05 01:50:28;;;;;;;12.93;9.60;;;19.10;99.90;;;;;;5035566;28;20479;-61
2022/08/05 01:53:03;;;;;;;16.03;9.33;;;19.10;99.90;;;;;;5035677;28;20450;-61
2022/08/05 01:55:34;;;;;;;16.90;9.97;;;19.10;99.90;;;;;;5035477;28;20469;-61
2022/08/05 01:58:05;;;;;;;21.50;10.03;;;19.10;99.90;;;;;;5035481;28;20475;-61
2022/08/05 02:00:35;;;;;;;17.50;10.63;;;19.20;99.90;;;;;;5035487;28;20434;-61
2022/08/05 02:03:14;;;;;;;15.70;10.27;;;19.10;99.90;;;;;;5035320;28;20532;-61
2022/08/05 02:05:44;;;;;;;17.50;9.40;;;19.10;99.90;;;;;;5035448;28;20429;-61
2022/08/05 02:08:12;;;;;;;16.13;10.10;;;19.10;99.90;;;;;;5035028;28;20882;-62
2022/08/05 02:10:42;;;;;;;14.27;9.90;;;19.10;99.90;;;;;;5035387;28;20448;-61
2022/08/05 02:13:15;;;;;;;15.60;9.63;;;19.10;99.90;;;;;;5035570;28;20484;-61
2022/08/05 02:15:46;;;;;;;15.73;10.47;;;19.00;99.90;;;;;;5035329;28;20877;-60
2022/08/05 02:18:20;;;;;;;15.73;10.20;;;19.00;99.90;;;;;;5035148;28;20567;-61
2022/08/05 02:20:53;;;;;;;23.30;10.47;;;19.00;99.90;;;;;;5035070;28;20525;-61
2022/08/05 02:23:24;;;;;;;18.93;10.47;;;19.00;99.90;;;;;;5035858;28;20834;-61
2022/08/05 02:25:53;;;;;;;17.23;11.13;;;19.00;99.90;;;;;;5034578;28;20995;-62
2022/08/05 02:28:25;;;;;;;19.60;10.33;;;19.00;99.90;;;;;;5034867;28;20980;-62
2022/08/05 02:30:56;;;;;;;19.40;11.73;;;19.00;99.90;;;;;;5034537;28;20445;-62
2022/08/05 02:33:25;;;;;;;21.37;11.03;;;19.00;99.90;;;;;;5034936;28;20465;-63
2022/08/05 02:35:56;;;;;;;22.90;11.10;;;18.90;99.90;;;;;;5034360;28;21019;-63
2022/08/05 02:38:24;;;;;;;18.27;10.70;;;18.90;99.90;;;;;;5034310;28;20469;-62
2022/08/05 02:40:53;;;;;;;16.03;11.30;;;18.90;99.90;;;;;;5034384;28;20952;-62
2022/08/05 02:43:24;;;;;;;17.37;10.63;;;18.90;99.90;;;;;;5034622;28;20937;-62
2022/08/05 02:45:53;;;;;;;19.87;11.23;;;18.80;99.90;;;;;;5034716;28;20495;-62
2022/08/05 02:48:21;;;;;;;16.47;11.00;;;18.70;99.90;;;;;;5033386;28;20512;-63
2022/08/05 02:50:50;;;;;;;15.87;10.23;;;18.70;99.90;;;;;;5034061;28;20449;-62
2022/08/05 02:53:20;;;;;;;16.47;11.43;;;18.70;99.90;;;;;;5034347;28;20445;-62
2022/08/05 02:55:51;;;;;;;17.60;11.40;;;18.70;99.90;;;;;;5033920;28;20485;-62
2022/08/05 02:58:22;;;;;;;17.20;11.93;;;18.70;99.90;;;;;;5033829;28;20484;-62
2022/08/05 03:00:52;;;;;;;17.43;12.07;;;18.70;99.90;;;;;;5033946;28;20918;-61
2022/08/05 03:03:20;;;;;;;17.53;11.23;;;18.70;99.90;;;;;;5034139;28;20452;-61
2022/08/05 03:05:49;;;;;;;25.20;12.90;;;18.70;99.90;;;;;;5033842;28;20441;-61
2022/08/05 03:08:17;;;;;;;19.60;12.30;;;18.70;99.90;;;;;;5034004;28;20504;-61
2022/08/05 03:10:45;;;;;;;16.80;10.70;;;18.70;99.90;;;;;;5033693;28;20449;-61
2022/08/05 03:13:13;;;;;;;22.70;11.60;;;18.70;99.90;;;;;;5033825;28;20911;-61
2022/08/05 03:15:44;;;;;;;19.67;11.30;;;18.70;99.90;;;;;;5033464;28;20480;-61
2022/08/05 03:18:11;;;;;;;15.53;10.30;;;18.70;99.90;;;;;;5033426;28;20790;-61
2022/08/05 03:20:39;;;;;;;14.10;10.50;;;18.70;99.90;;;;;;5034543;28;20676;-61
2022/08/05 03:23:07;;;;;;;17.80;10.77;;;18.70;99.90;;;;;;5042997;28;20445;-62
2022/08/05 03:25:35;;;;;;;12.97;10.10;;;18.70;99.90;;;;;;5047682;28;20441;-61
2022/08/05 03:28:05;;;;;;;14.33;9.67;;;18.80;99.90;;;;;;5049348;28;20500;-61
2022/08/05 03:30:33;;;;;;;19.40;10.40;;;18.80;99.90;;;;;;5050567;28;20425;-60
2022/08/05 03:33:03;;;;;;;14.50;9.00;;;18.80;99.90;;;;;;5050023;28;20468;-61
2022/08/05 03:35:32;;;;;;;13.97;10.77;;;18.90;99.90;;;;;;5049767;28;20840;-62
2022/08/05 03:38:00;;;;;;;15.40;9.77;;;18.90;99.90;;;;;;5037290;28;20480;-62
2022/08/05 03:40:28;;;;;;;16.17;10.73;;;18.90;99.90;;;;;;5035494;28;20578;-61
2022/08/05 03:42:55;;;;;;;16.03;9.43;;;18.90;99.90;;;;;;5036575;28;20448;-61
2022/08/05 03:45:22;;;;;;;17.37;10.57;;;18.90;99.90;;;;;;5036467;28;20445;-61
2022/08/05 03:47:50;;;;;;;13.13;9.90;;;18.90;99.90;;;;;;5036331;28;20512;-61
2022/08/05 03:50:19;;;;;;;18.13;10.70;;;18.90;99.90;;;;;;5037006;28;20476;-60
2022/08/05 03:52:54;;;;;;;15.57;11.57;;;18.90;99.90;;;;;;5036999;28;20499;-61
2022/08/05 03:55:26;;;;;;;17.37;10.27;;;18.90;99.90;;;;;;5037444;28;20546;-62
2022/08/05 03:57:55;;;;;;;17.97;10.53;;;18.90;99.90;;;;;;5040742;28;20496;-63
2022/08/05 04:00:28;;;;;;;18.47;10.90;;;18.80;99.90;;;;;;5043134;28;20673;-63
2022/08/05 04:02:58;;;;;;;15.67;11.10;;;18.80;99.90;;;;;;5042007;28;20928;-62
2022/08/05 04:05:29;;;;;;;17.00;12.30;;;18.80;99.90;;;;;;5043604;28;20430;-62
2022/08/05 04:10:05;;;;;;;20.90;11.90;;;18.70;99.90;;;;;;5138835;27;20526;-60
2022/08/05 04:12:33;;;;;;;17.13;12.60;;;18.70;99.90;;;;;;5134530;28;20432;-61
2022/08/05 04:15:00;;;;;;;20.63;13.97;;;18.70;99.90;;;;;;5132348;28;20443;-61
2022/08/05 04:17:28;;;;;;;16.27;12.20;;;18.70;99.90;;;;;;5131770;28;20453;-61
2022/08/05 04:19:55;;;;;;;18.03;12.60;;;18.60;99.90;;;;;;5131681;28;20436;-62
2022/08/05 04:22:22;;;;;;;19.50;13.20;;;18.60;99.90;;;;;;5131534;28;20527;-62
2022/08/05 04:24:49;;;;;;;19.43;12.60;;;18.60;99.90;;;;;;5131503;28;20471;-62
2022/08/05 04:27:18;;;;;;;21.10;14.27;;;18.60;99.90;;;;;;5131246;28;20481;-62
2022/08/05 04:29:45;;;;;;;20.57;13.80;;;18.60;99.90;;;;;;5131013;28;20476;-62
2022/08/05 04:32:12;;;;;;;20.80;13.20;;;18.60;99.90;;;;;;5130964;28;20532;-61
2022/08/05 04:34:40;;;;;;;22.70;13.20;;;18.60;99.90;;;;;;5131299;27;20493;-62
2022/08/05 04:37:07;;;;;;;23.80;14.30;;;18.60;99.90;;;;;;5130870;28;20472;-61
2022/08/05 04:39:34;;;;;;;20.50;12.53;;;18.60;99.90;;;;;;5130626;28;20496;-61
2022/08/05 04:42:01;;;;;;;18.57;12.67;;;18.60;99.90;;;;;;5131067;27;20483;-62
2022/08/05 04:44:30;;;;;;;20.37;12.50;;;18.60;99.90;;;;;;5130916;28;20472;-62
2022/08/05 04:46:57;;;;;;;22.93;13.57;;;18.70;99.90;;;;;;5131082;28;20472;-62
2022/08/05 04:49:25;;;;;;;19.20;13.03;;;18.70;99.90;;;;;;5130835;27;20508;-62
2022/08/05 04:51:52;;;;;;;24.57;14.07;;;18.70;99.90;;;;;;5130915;28;20531;-61
2022/08/05 04:54:20;;;;;;;23.57;15.07;;;18.70;99.90;;;;;;5130961;27;20814;-62
2022/08/05 04:56:48;;;;;;;23.43;14.60;;;18.70;99.90;;;;;;5130723;28;20436;-61
2022/08/05 04:59:15;;;;;;;20.20;13.50;;;18.70;99.90;;;;;;5130762;28;20469;-62
2022/08/05 05:01:44;;;;;;;18.57;13.50;;;18.70;99.90;;;;;;5130566;28;20453;-61
2022/08/05 05:04:11;;;;;;;21.97;12.93;;;18.70;99.90;;;;;;5131290;28;20540;-60
2022/08/05 05:06:38;;;;;;;20.10;13.30;;;18.70;99.90;;;;;;5130499;28;20451;-61
2022/08/05 05:09:06;;;;;;;16.87;11.30;;;18.70;99.90;;;;;;5130110;27;20571;-61
2022/08/05 05:11:33;;;;;;;16.83;10.70;;;18.70;99.90;;;;;;5130487;28;20528;-62
2022/08/05 05:14:02;;;;;;;15.10;9.10;;;18.80;99.90;;;;;;5129985;28;20523;-61
2022/08/05 05:16:29;;;;;;;15.73;9.80;;;18.90;99.90;;;;;;5130394;27;20440;-62
2022/08/05 05:18:58;;;;;;;15.97;10.30;;;18.80;99.90;;;;;;5129815;27;20959;-62
2022/08/05 05:21:25;;;;;;;13.70;9.43;;;18.90;99.90;;;;;;5116430;28;20442;-61
2022/08/05 05:23:53;;;;;;;15.23;10.00;;;18.90;99.90;;;;;;5116276;28;20441;-62
2022/08/05 05:26:20;;;;;;;16.03;8.60;;;18.90;99.90;;;;;;5116476;28;20528;-62
2022/08/05 05:28:47;;;;;;;14.53;9.23;;;19.00;99.90;;;;;;5117308;28;20577;-62
2022/08/05 05:31:15;;;;;;;15.10;9.00;;;18.90;99.90;;;;;;5119792;28;20462;-62
2022/08/05 05:33:42;;;;;;;12.70;8.80;;;18.90;99.90;;;;;;5123283;28;20476;-61
2022/08/05 05:36:11;;;;;;;15.43;10.60;;;18.90;99.90;;;;;;5116553;28;20929;-62
2022/08/05 05:38:38;;;;;;;11.23;8.47;;;19.00;99.90;;;;;;5115801;28;20461;-61
2022/08/05 05:41:06;;;;;;;12.90;8.37;;;19.00;99.90;;;;;;5115697;28;20473;-60
2022/08/05 05:43:33;;;;;;;12.20;9.10;;;19.00;99.90;;;;;;5115787;28;20481;-62
2022/08/05 05:46:00;;;;;;;12.50;8.03;;;19.00;99.90;;;;;;5115725;28;21018;-62
2022/08/05 05:48:27;;;;;;;14.50;8.97;;;19.00;99.90;;;;;;5115420;28;20478;-62
2022/08/05 05:50:54;;;;;;;9.43;7.23;;;19.00;99.90;;;;;;5115422;28;20934;-61
2022/08/05 05:53:23;;;;;;;10.57;7.57;;;18.90;99.90;;;;;;5115506;28;20481;-62
2022/08/05 05:55:50;;;;;;;12.03;7.97;;;18.90;99.90;;;;;;5115780;28;21024;-62
2022/08/05 05:58:17;;;;;;;11.40;7.50;;;18.80;99.90;;;;;;5115629;28;20471;-62
2022/08/05 06:00:45;;;;;;;10.20;7.00;;;18.70;99.90;;;;;;5115416;28;20532;-62
2022/08/05 06:03:12;;;;;;;12.03;6.93;;;18.70;99.90;;;;;;5115735;28;20444;-62
2022/08/05 06:05:39;;;;;;;8.60;6.37;;;18.80;99.90;;;;;;5116409;28;20541;-61
2022/08/05 06:08:06;;;;;;;14.63;7.30;;;18.80;99.90;;;;;;5115139;28;20502;-62
2022/08/05 06:10:35;;;;;;;9.30;6.10;;;18.70;99.90;;;;;;5115226;28;20544;-63
2022/08/05 06:13:03;;;;;;;15.70;6.60;;;18.70;99.90;;;;;;5115843;28;20506;-62
2022/08/05 06:15:31;;;;;;;11.20;7.17;;;18.70;99.90;;;;;;5115425;28;20467;-60
2022/08/05 06:17:58;;;;;;;9.30;7.30;;;18.60;99.90;;;;;;5115505;28;20561;-61
2022/08/05 06:20:25;;;;;;;12.03;7.63;;;18.70;99.90;;;;;;5115736;28;20445;-61
2022/08/05 06:22:52;;;;;;;9.43;7.10;;;18.60;99.90;;;;;;5115838;28;20502;-61
2022/08/05 06:25:20;;;;;;;14.90;8.90;;;18.50;99.90;;;;;;5115187;28;20506;-62
2022/08/05 06:27:48;;;;;;;10.00;8.03;;;18.30;99.90;;;;;;5114934;28;20544;-63
2022/08/05 06:30:15;;;;;;;12.77;7.93;;;18.20;99.90;;;;;;5115104;28;20477;-63
2022/08/05 06:32:43;;;;;;;15.33;9.07;;;18.00;99.90;;;;;;5114334;28;20514;-63
2022/08/05 06:35:10;;;;;;;11.03;8.40;;;17.90;99.90;;;;;;5114970;28;20445;-62
2022/08/05 06:37:37;;;;;;;11.00;8.70;;;17.80;99.90;;;;;;5126479;28;20534;-63
2022/08/05 06:40:06;;;;;;;10.27;8.13;;;17.70;99.90;;;;;;5133860;28;20433;-66
2022/08/05 06:42:33;;;;;;;15.77;8.83;;;17.60;99.90;;;;;;5131571;28;20511;-62
2022/08/05 06:45:02;;;;;;;12.70;8.30;;;17.60;99.90;;;;;;5130155;28;20464;-62
2022/08/05 06:47:29;;;;;;;13.70;8.70;;;17.60;99.90;;;;;;5116847;27;20495;-64
2022/08/05 06:49:56;;;;;;;13.90;9.67;;;17.60;99.90;;;;;;5114920;28;20479;-62
2022/08/05 06:52:24;;;;;;;14.10;10.10;;;17.60;99.90;;;;;;5114621;28;20442;-63
2022/08/05 06:54:51;;;;;;;12.50;9.30;;;17.60;99.90;;;;;;5114626;28;20620;-63
2022/08/05 06:57:18;;;;;;;14.07;8.03;;;17.60;99.90;;;;;;5114285;28;20452;-63
2022/08/05 06:59:45;;;;;;;14.47;10.17;;;17.60;99.90;;;;;;5114438;28;20801;-63
2022/08/05 07:02:14;;;;;;;16.27;9.60;;;17.60;99.90;;;;;;5114082;28;20615;-62
2022/08/05 07:04:41;;;;;;;15.50;10.17;;;17.60;99.90;;;;;;5114086;28;20824;-62
2022/08/05 07:07:08;;;;;;;11.00;9.10;;;17.70;99.90;;;;;;5114341;28;20437;-63
2022/08/05 07:09:35;;;;;;;15.70;8.70;;;17.70;99.90;;;;;;5113794;28;20485;-62
2022/08/05 07:12:03;;;;;;;13.80;9.60;;;17.70;99.90;;;;;;5114140;28;20437;-62
2022/08/05 07:17:17;;;;;;;11.43;8.50;;;17.70;99.90;;;;;;5114025;28;20493;-61
2022/08/05 07:19:44;;;;;;;11.30;8.33;;;17.70;99.90;;;;;;5114609;28;20469;-61
2022/08/05 07:22:12;;;;;;;14.53;8.80;;;17.70;99.90;;;;;;5113708;28;20446;-61
2022/08/05 07:24:39;;;;;;;10.10;7.30;;;17.70;99.90;;;;;;5113634;28;20456;-62
2022/08/05 07:27:06;;;;;;;13.43;9.43;;;17.70;99.90;;;;;;5113782;28;20524;-62
2022/08/05 07:29:33;;;;;;;9.80;7.93;;;17.70;99.90;;;;;;5113308;28;20571;-62
2022/08/05 07:32:01;;;;;;;11.20;8.07;;;17.80;99.90;;;;;;5116786;28;20449;-62
2022/08/05 07:34:29;;;;;;;12.90;8.20;;;17.70;99.90;;;;;;5118090;28;20452;-62
2022/08/05 07:36:56;;;;;;;11.37;8.20;;;17.70;99.90;;;;;;5115292;28;20480;-62
2022/08/05 07:39:23;;;;;;;9.47;7.60;;;17.80;99.90;;;;;;5114168;28;21032;-62
2022/08/05 07:41:51;;;;;;;10.07;8.17;;;17.70;99.90;;;;;;5113676;28;20802;-62
2022/08/05 07:44:18;;;;;;;11.03;8.87;;;17.70;99.90;;;;;;5113571;28;20445;-62
2022/08/05 07:46:45;;;;;;;10.67;8.37;;;17.70;99.90;;;;;;5113657;28;20635;-61
2022/08/05 07:49:13;;;;;;;11.97;8.57;;;17.70;99.90;;;;;;5113372;28;20481;-62
2022/08/05 07:51:41;;;;;;;9.30;8.40;;;17.70;99.90;;;;;;5113446;28;20437;-61
2022/08/05 07:54:09;;;;;;;12.63;7.57;;;17.80;99.90;;;;;;5113292;28;20533;-61
2022/08/05 07:56:36;;;;;;;10.57;8.17;;;17.80;99.90;;;;;;5113169;28;20445;-61
2022/08/05 07:59:03;;;;;;;8.50;6.80;;;17.70;99.90;;;;;;5112948;28;20496;-62
2022/08/05 08:01:31;;;;;;;10.83;8.50;;;17.70;99.90;;;;;;5113091;28;20532;-61
2022/08/05 08:03:58;;;;;;;11.73;8.27;;;17.60;99.90;;;;;;5113184;28;21009;-60
2022/08/05 08:06:25;;;;;;;10.27;8.73;;;17.50;99.90;;;;;;5113133;28;20540;-63
2022/08/05 08:08:54;;;;;;;9.93;7.70;;;17.50;99.90;;;;;;5113748;28;20569;-62
2022/08/05 08:11:21;;;;;;;8.73;7.90;;;17.70;99.90;;;;;;5112840;28;20484;-63
2022/08/05 08:13:48;;;;;;;13.03;9.30;;;17.80;99.90;;;;;;5113326;28;20541;-62
2022/08/05 08:16:15;;;;;;;13.47;8.63;;;18.00;99.90;;;;;;5113396;28;20536;-61
2022/08/05 08:18:42;;;;;;;11.33;7.70;;;18.10;99.90;;;;;;5113056;28;20515;-61
2022/08/05 08:21:09;;;;;;;9.40;8.40;;;18.30;99.90;;;;;;5113254;28;20942;-61
2022/08/05 08:23:37;;;;;;;7.70;6.90;;;18.40;99.90;;;;;;5112881;28;20449;-62
2022/08/05 08:26:06;;;;;;;12.73;8.33;;;18.50;99.90;;;;;;5113233;28;20478;-61
2022/08/05 08:28:33;;;;;;;7.70;6.53;;;18.60;99.90;;;;;;5113035;28;20895;-61
2022/08/05 08:31:00;;;;;;;8.10;7.30;;;18.60;99.90;;;;;;5112605;28;21020;-62
2022/08/05 08:33:27;;;;;;;7.33;6.73;;;18.50;99.90;;;;;;5113035;28;20567;-61
2022/08/05 08:35:54;;;;;;;10.87;7.83;;;18.50;99.90;;;;;;5112803;28;20548;-61
2022/08/05 08:38:22;;;;;;;8.73;7.90;;;18.50;99.90;;;;;;5112383;28;21020;-61
2022/08/05 08:40:49;;;;;;;7.83;7.03;;;18.50;99.90;;;;;;5112500;28;20480;-61
2022/08/05 08:43:20;;;;;;;8.00;7.30;;;18.60;99.90;;;;;;5112966;28;20536;-62
2022/08/05 08:45:49;;;;;;;7.97;7.23;;;18.60;99.90;;;;;;5112305;28;20897;-61
2022/08/05 08:48:19;;;;;;;9.07;7.37;;;18.60;99.90;;;;;;5112494;28;21025;-61
2022/08/05 08:50:47;;;;;;;7.83;7.13;;;18.60;99.90;;;;;;5112604;28;20477;-61
2022/08/05 08:53:16;;;;;;;8.40;7.50;;;18.50;99.90;;;;;;5112906;28;20441;-61
2022/08/05 08:55:44;;;;;;;7.33;6.43;;;18.60;99.90;;;;;;5114625;28;20445;-62
2022/08/05 08:58:15;;;;;;;9.67;7.50;;;18.90;99.90;;;;;;5116323;28;20564;-61
2022/08/05 09:00:43;;;;;;;7.87;7.07;;;19.20;99.90;;;;;;5116565;28;20471;-62
2022/08/05 09:03:11;;;;;;;7.43;6.73;;;19.50;99.90;;;;;;5116241;28;20524;-61
2022/08/05 09:05:38;;;;;;;9.00;7.80;;;19.60;99.90;;;;;;5116581;28;20480;-61
2022/08/05 09:08:06;;;;;;;8.47;7.67;;;19.70;99.90;;;;;;5116099;28;20908;-61
2022/08/05 09:10:34;;;;;;;8.93;7.73;;;19.70;99.90;;;;;;5116061;28;20461;-62
2022/08/05 09:13:01;;;;;;;8.73;7.27;;;19.80;99.90;;;;;;5116553;28;20449;-61
2022/08/05 09:15:28;;;;;;;7.20;6.57;;;19.90;99.90;;;;;;5116313;28;20465;-61
2022/08/05 09:17:57;;;;;;;7.63;6.47;;;19.90;99.90;;;;;;5116139;28;20496;-62
2022/08/05 09:20:24;;;;;;;7.53;6.13;;;19.90;99.90;;;;;;5115960;28;21009;-61
2022/08/05 09:23:07;;;;;;;6.97;6.37;;;19.90;99.90;;;;;;5116205;28;20445;-61
2022/08/05 09:25:35;;;;;;;9.20;6.60;;;19.90;99.90;;;;;;5115957;28;20528;-61
2022/08/05 09:28:16;;;;;;;7.00;6.20;;;19.80;99.90;;;;;;5115738;28;20465;-63
2022/08/05 09:30:52;;;;;;;9.00;6.70;;;19.80;99.90;;;;;;5116037;28;20461;-59
2022/08/05 09:33:21;;;;;;;7.80;5.87;;;19.70;99.90;;;;;;5115888;28;20425;-62
2022/08/05 09:35:58;;;;;;;12.80;6.00;;;19.60;99.90;;;;;;5115836;28;20544;-61
2022/08/05 09:38:25;;;;;;;7.00;6.30;;;19.50;99.90;;;;;;5116317;28;20839;-60
2022/08/05 09:40:55;;;;;;;7.93;5.97;;;19.40;99.90;;;;;;5115667;28;20444;-61
2022/08/05 09:43:30;;;;;;;5.90;5.40;;;19.30;99.90;;;;;;5115496;28;20457;-61
2022/08/05 09:45:58;;;;;;;6.03;5.43;;;19.10;99.90;;;;;;5115800;28;20469;-62
2022/08/05 09:48:28;;;;;;;6.97;5.30;;;19.00;99.90;;;;;;5115643;28;20544;-60
2022/08/05 09:50:57;;;;;;;5.93;4.73;;;19.00;99.90;;;;;;5115265;28;20577;-62
2022/08/05 09:53:25;;;;;;;8.43;4.63;;;18.90;99.90;;;;;;5116096;28;20442;-61
2022/08/05 09:55:55;;;;;;;7.53;5.17;;;18.80;99.90;;;;;;5115349;28;20488;-61
2022/08/05 09:58:22;;;;;;;6.40;5.10;;;18.80;99.90;;;;;;5114983;28;20472;-62
2022/08/05 10:00:59;;;;;;;6.10;4.50;;;18.90;99.90;;;;;;5115143;28;20532;-61
2022/08/05 10:03:29;;;;;;;4.40;3.77;;;18.90;99.90;;;;;;5115433;28;20425;-62
2022/08/05 10:06:04;;;;;;;5.33;3.40;;;19.00;99.90;;;;;;5115441;28;20455;-61
2022/08/05 10:08:32;;;;;;;2.60;2.37;;;19.00;99.90;;;;;;5114526;28;20576;-62
2022/08/05 10:10:59;;;;;;;4.00;2.90;;;19.10;99.90;;;;;;5114520;28;20524;-62
2022/08/05 10:13:31;;;;;;;4.07;2.77;;;19.00;99.90;;;;;;5115124;28;20441;-61
2022/08/05 10:15:59;;;;;;;3.80;2.43;;;19.10;99.90;;;;;;5114442;28;20981;-61
2022/08/05 10:18:30;;;;;;;3.30;2.43;;;19.10;99.90;;;;;;5114978;28;20512;-61
2022/08/05 10:21:00;;;;;;;4.37;2.50;;;19.10;99.90;;;;;;5114587;28;20430;-61
2022/08/05 10:23:29;;;;;;;4.70;2.50;;;19.10;99.90;;;;;;5114689;28;20802;-61
2022/08/05 10:25:58;;;;;;;2.70;2.50;;;19.10;99.90;;;;;;5114720;28;20450;-62
2022/08/05 10:28:26;;;;;;;3.17;2.83;;;19.10;99.90;;;;;;5114290;28;20501;-60
2022/08/05 10:30:53;;;;;;;4.17;2.57;;;19.20;99.90;;;;;;5114620;28;20473;-61
2022/08/05 10:33:22;;;;;;;3.40;2.60;;;19.30;99.90;;;;;;5115525;28;20445;-61
2022/08/05 10:35:52;;;;;;;4.10;3.00;;;19.30;99.90;;;;;;5115783;28;20445;-62
2022/08/05 10:38:21;;;;;;;3.80;3.20;;;19.40;99.90;;;;;;5114265;28;20519;-62
2022/08/05 10:40:58;;;;;;;4.90;3.10;;;19.30;99.90;;;;;;5113818;28;20546;-62
2022/08/05 10:43:36;;;;;;;3.77;3.40;;;19.20;99.90;;;;;;5114268;28;20528;-62
2022/08/05 10:46:05;;;;;;;6.37;3.83;;;18.90;99.90;;;;;;5114241;28;20430;-63
2022/08/05 10:48:34;;;;;;;7.87;4.20;;;18.60;99.90;;;;;;5114196;28;20501;-64
2022/08/05 10:51:07;;;;;;;5.20;4.43;;;18.30;99.90;;;;;;5114374;28;20920;-63
2022/08/05 10:53:39;;;;;;;7.17;4.90;;;18.00;99.90;;;;;;5113896;28;20425;-62
2022/08/05 10:56:09;;;;;;;10.40;5.70;;;17.80;99.90;;;;;;5114546;27;20426;-63
2022/08/05 10:58:47;;;;;;;6.37;5.77;;;17.70;99.90;;;;;;5113880;28;20561;-63
2022/08/05 11:01:14;;;;;;;7.80;5.40;;;17.60;99.90;;;;;;5114057;28;20877;-62
2022/08/05 11:04:02;;;;;;;9.40;5.63;;;17.60;99.90;;;;;;5114372;28;20516;-62
2022/08/05 11:06:32;;;;;;;8.63;6.47;;;17.60;99.90;;;;;;5114289;28;20871;-62
2022/08/05 11:09:18;;;;;;;6.80;5.77;;;17.70;99.90;;;;;;5114045;28;20465;-61
2022/08/05 11:11:48;;;;;;;6.47;5.80;;;17.90;99.90;;;;;;5113854;28;20544;-61
2022/08/05 11:14:23;;;;;;;5.07;4.57;;;18.00;99.90;;;;;;5113144;28;20449;-61
2022/08/05 11:17:24;;;;;;;6.37;4.53;;;18.10;99.90;;;;;;5114133;28;20854;-61
2022/08/05 11:19:52;;;;;;;6.87;5.27;;;18.10;99.90;;;;;;5114443;28;20897;-62
2022/08/05 11:22:40;;;;;;;9.77;4.73;;;18.10;99.90;;;;;;5113432;28;20532;-61
2022/08/05 11:25:33;;;;;;;9.13;5.00;;;18.10;99.90;;;;;;5113819;28;20465;-60
2022/08/05 11:28:37;;;;;;;6.00;4.73;;;18.20;99.90;;;;;;5113686;28;20458;-61
2022/08/05 11:31:29;;;;;;;5.27;4.77;;;18.30;99.90;;;;;;5116617;22;20845;-57
2022/08/05 11:33:59;;;;;;;7.00;5.73;;;18.50;99.90;;;;;;5073009;28;20424;-57
2022/08/05 11:36:56;;;;;;;5.60;5.10;;;18.60;99.90;;;;;;5072643;28;20501;-56
2022/08/05 11:39:51;;;;;;;5.20;4.50;;;18.80;99.90;;;;;;4991387;28;20427;-57
2022/08/05 11:42:24;;;;;;;5.53;4.80;;;18.90;99.90;;;;;;5068480;28;20485;-56
2022/08/05 11:44:52;;;;;;;5.53;4.83;;;19.00;99.90;;;;;;5072418;28;20424;-56
2022/08/05 11:47:22;;;;;;;7.00;5.03;;;19.10;99.90;;;;;;5072827;28;20474;-56
2022/08/05 11:49:56;;;;;;;5.27;4.43;;;19.00;99.90;;;;;;5072535;28;20540;-56
2022/08/05 11:52:24;;;;;;;6.33;5.10;;;19.00;99.90;;;;;;5072352;28;20580;-56
2022/08/05 11:54:54;;;;;;;7.73;5.13;;;19.00;99.90;;;;;;5072617;28;20447;-56
2022/08/05 11:57:27;;;;;;;5.57;4.97;;;19.00;99.90;;;;;;5072944;28;20443;-55
2022/08/05 11:59:55;;;;;;;5.63;4.97;;;18.90;99.90;;;;;;5073627;28;21026;-55
2022/08/05 12:02:27;;;;;;;7.07;5.63;;;18.80;99.90;;;;;;5073687;28;20444;-56
2022/08/05 12:04:55;;;;;;;6.07;5.33;;;18.70;99.90;;;;;;5073571;28;20878;-57
2022/08/05 12:07:22;;;;;;;6.47;5.37;;;18.70;99.90;;;;;;5072970;28;20451;-56
2022/08/05 12:09:55;;;;;;;6.57;5.63;;;18.60;99.90;;;;;;5073619;28;20489;-56
2022/08/05 12:12:23;;;;;;;7.10;5.90;;;18.60;99.90;;;;;;5073844;28;21047;-55
2022/08/05 12:14:51;;;;;;;5.23;4.50;;;18.50;99.90;;;;;;5073027;28;20526;-55
2022/08/05 12:17:19;;;;;;;6.60;5.17;;;18.40;99.90;;;;;;5073227;28;20891;-57
2022/08/05 12:19:48;;;;;;;7.30;5.27;;;18.30;99.90;;;;;;5072917;28;20504;-58
2022/08/05 12:22:17;;;;;;;5.80;5.03;;;18.30;99.90;;;;;;5073836;28;20448;-57
2022/08/05 12:24:46;;;;;;;4.70;4.37;;;18.30;99.90;;;;;;5073406;28;20428;-55
2022/08/05 12:27:21;;;;;;;5.73;4.50;;;18.40;99.90;;;;;;5073496;28;20509;-56
2022/08/05 12:30:00;;;;;;;4.97;4.57;;;18.40;99.90;;;;;;5073670;28;20500;-56
2022/08/05 12:32:28;;;;;;;4.47;4.07;;;18.50;99.90;;;;;;5077658;28;20466;-57
2022/08/05 12:34:55;;;;;;;4.60;4.07;;;18.60;99.90;;;;;;5077017;28;20447;-56
2022/08/05 12:37:23;;;;;;;5.23;4.70;;;18.60;99.90;;;;;;5077917;28;20562;-56
2022/08/05 12:39:51;;;;;;;5.77;4.20;;;18.60;99.90;;;;;;5077912;28;20474;-57
2022/08/05 12:42:21;;;;;;;4.60;4.00;;;18.70;99.90;;;;;;5078124;28;20862;-55
2022/08/05 12:44:49;;;;;;;4.47;3.70;;;18.60;99.90;;;;;;5077495;28;20524;-56
2022/08/05 12:47:27;;;;;;;5.73;4.27;;;18.60;99.90;;;;;;5077645;28;20447;-56
2022/08/05 12:49:55;;;;;;;4.90;4.40;;;18.60;99.90;;;;;;5077389;28;20467;-56
2022/08/05 12:52:22;;;;;;;5.20;4.67;;;18.60;99.90;;;;;;5077664;28;20479;-55
2022/08/05 12:54:49;;;;;;;5.53;4.10;;;18.60;99.90;;;;;;5077384;28;20443;-58
2022/08/05 12:57:18;;;;;;;5.40;4.60;;;18.60;99.90;;;;;;5077244;28;20484;-57